San Jose, Tobías Bolaños International Airport (MRPV)

NameTobías Bolaños International Airport
CitySan Jose
CountryCosta Rica
ICAOMRPV
IATASYQ
Altitude305 m
CoordinatesGoogle Map
Live Air TrafficLiveATC.net
METARMRPV 201600Z 34003KT 9999 FEW035 BKN160 26/18 A3003 NOSIG
2019-05-20 16:00:00 Wind: North-Northwest (340°) 1.54 m/s - Visibility: > 10000 m - Temperature: 26 °C - Dew point: 18 °C - Humidity: 61.4% - Pressure: 1016.93 hPa
Statistics

The table below shows the detailed information of all flights to/from San Jose, Tobías Bolaños International Airport (MRPV).